Time;durP1;ratioP1;P1;durP2;ratioP2;P2;SDS_P1;SDS_P2;PMS_P1;PMS_P2;Temp;Humidity;BMP_temperature;BMP_pressure;BME280_temperature;BME280_humidity;BME280_pressure;Samples;Min_cycle;Max_cycle;Signal;HPM_P1;HPM_P2
2024/04/04 00:02:02;;;;;;;7.17;1.23;;;;;;;;;;5090882;28;20203;-86
2024/04/04 00:04:29;;;;;;;8.13;1.50;;;;;;;;;;5090751;28;20222;-85
2024/04/04 00:06:56;;;;;;;7.57;1.70;;;;;;;;;;5091375;28;20263;-85
2024/04/04 00:09:22;;;;;;;6.13;1.37;;;;;;;;;;5091147;28;20275;-86
2024/04/04 00:11:52;;;;;;;6.13;1.53;;;;;;;;;;5091166;28;20291;-84
2024/04/04 00:14:18;;;;;;;5.67;1.37;;;;;;;;;;5090931;28;20659;-84
2024/04/04 00:16:46;;;;;;;3.90;1.20;;;;;;;;;;5090783;28;20194;-85
2024/04/04 00:19:13;;;;;;;6.47;1.53;;;;;;;;;;5090761;28;20258;-85
2024/04/04 00:21:40;;;;;;;9.23;1.70;;;;;;;;;;5091558;28;20194;-84
2024/04/04 00:24:07;;;;;;;6.07;1.40;;;;;;;;;;5090859;28;20195;-85
2024/04/04 00:26:34;;;;;;;4.67;1.10;;;;;;;;;;5090362;28;20279;-84
2024/04/04 00:29:00;;;;;;;4.80;1.03;;;;;;;;;;5091058;28;20251;-84
2024/04/04 00:31:28;;;;;;;5.37;1.27;;;;;;;;;;5092481;28;20198;-84
2024/04/04 00:33:56;;;;;;;5.43;1.10;;;;;;;;;;5094585;28;20199;-85
2024/04/04 00:36:26;;;;;;;4.03;1.17;;;;;;;;;;5094817;28;20199;-84
2024/04/04 00:38:52;;;;;;;4.27;1.20;;;;;;;;;;5094239;28;20767;-84
2024/04/04 00:41:19;;;;;;;3.10;0.90;;;;;;;;;;5094301;28;20190;-84
2024/04/04 00:43:46;;;;;;;3.07;1.30;;;;;;;;;;5094114;28;20671;-84
2024/04/04 00:46:13;;;;;;;3.40;0.90;;;;;;;;;;5093995;28;20221;-82
2024/04/04 00:48:39;;;;;;;2.87;0.80;;;;;;;;;;5094087;28;20190;-84
2024/04/04 00:51:06;;;;;;;4.47;0.90;;;;;;;;;;5094403;28;20194;-84
2024/04/04 00:53:34;;;;;;;3.00;0.90;;;;;;;;;;5094378;28;20211;-85
2024/04/04 00:56:02;;;;;;;5.70;1.43;;;;;;;;;;5094316;28;20297;-85
2024/04/04 00:58:28;;;;;;;4.73;1.17;;;;;;;;;;5093934;28;20254;-85
2024/04/04 01:00:55;;;;;;;2.90;1.10;;;;;;;;;;5093850;28;20202;-85
2024/04/04 01:03:21;;;;;;;5.80;1.40;;;;;;;;;;5094074;28;20272;-85
2024/04/04 01:05:49;;;;;;;5.77;1.13;;;;;;;;;;5093987;28;20289;-84
2024/04/04 01:08:15;;;;;;;8.17;1.67;;;;;;;;;;5094152;28;20194;-85
2024/04/04 01:10:44;;;;;;;5.47;1.80;;;;;;;;;;5094435;28;20264;-85
2024/04/04 01:13:10;;;;;;;9.53;1.47;;;;;;;;;;5093645;28;20225;-85
2024/04/04 01:15:38;;;;;;;6.67;1.80;;;;;;;;;;5093721;28;20203;-85
2024/04/04 01:18:04;;;;;;;6.93;1.70;;;;;;;;;;5093706;28;20195;-84
2024/04/04 01:20:31;;;;;;;8.23;1.77;;;;;;;;;;5093625;28;20202;-86
2024/04/04 01:22:58;;;;;;;7.23;1.77;;;;;;;;;;5094430;28;20255;-85
2024/04/04 01:25:26;;;;;;;8.40;1.77;;;;;;;;;;5093188;28;20781;-83
2024/04/04 01:27:53;;;;;;;6.07;1.67;;;;;;;;;;5093471;28;20248;-84
2024/04/04 01:30:20;;;;;;;8.60;1.57;;;;;;;;;;5093392;28;20671;-84
2024/04/04 01:32:46;;;;;;;9.50;1.90;;;;;;;;;;5093368;28;20230;-85
2024/04/04 01:35:13;;;;;;;8.63;2.10;;;;;;;;;;5093268;28;20202;-83
2024/04/04 01:37:40;;;;;;;8.50;1.83;;;;;;;;;;5093489;28;20232;-84
2024/04/04 01:40:08;;;;;;;6.00;1.80;;;;;;;;;;5093151;28;20238;-82
2024/04/04 01:42:36;;;;;;;5.13;1.30;;;;;;;;;;5092671;28;20250;-83
2024/04/04 01:45:04;;;;;;;5.73;1.30;;;;;;;;;;5093279;28;20226;-83
2024/04/04 01:47:30;;;;;;;7.17;1.43;;;;;;;;;;5093115;28;20198;-83
2024/04/04 01:49:58;;;;;;;7.00;1.60;;;;;;;;;;5093061;28;20202;-83
2024/04/04 01:52:24;;;;;;;4.47;1.43;;;;;;;;;;5093118;28;20550;-83
2024/04/04 01:54:51;;;;;;;7.77;1.60;;;;;;;;;;5092857;28;20245;-84
2024/04/04 01:57:17;;;;;;;8.17;1.63;;;;;;;;;;5092903;28;20222;-83
2024/04/04 01:59:46;;;;;;;6.30;1.70;;;;;;;;;;5092445;28;20267;-82
2024/04/04 02:02:13;;;;;;;5.40;1.50;;;;;;;;;;5093554;28;20239;-83
2024/04/04 02:04:40;;;;;;;5.60;1.30;;;;;;;;;;5092653;28;20206;-83
2024/04/04 02:07:06;;;;;;;4.07;1.50;;;;;;;;;;5092567;28;20619;-83
2024/04/04 02:09:33;;;;;;;5.20;1.50;;;;;;;;;;5092639;28;20241;-83
2024/04/04 02:11:59;;;;;;;6.87;1.40;;;;;;;;;;5092768;28;20667;-82
2024/04/04 02:14:27;;;;;;;5.57;1.50;;;;;;;;;;5092631;28;20203;-83
2024/04/04 02:16:55;;;;;;;6.90;1.10;;;;;;;;;;5087193;28;20202;-82
2024/04/04 02:19:22;;;;;;;4.53;0.97;;;;;;;;;;5083290;28;20234;-82
2024/04/04 02:21:48;;;;;;;1.53;0.70;;;;;;;;;;5092353;28;20243;-83
2024/04/04 02:24:15;;;;;;;2.63;0.60;;;;;;;;;;5092932;28;20233;-83
2024/04/04 02:26:42;;;;;;;2.80;0.53;;;;;;;;;;5091463;28;20258;-83
2024/04/04 02:29:09;;;;;;;3.10;0.40;;;;;;;;;;5092356;28;20198;-82
2024/04/04 02:31:36;;;;;;;3.17;0.70;;;;;;;;;;5091843;28;20281;-82
2024/04/04 02:34:04;;;;;;;3.50;1.00;;;;;;;;;;5091916;28;20209;-82
2024/04/04 02:36:30;;;;;;;5.53;1.40;;;;;;;;;;5092668;28;20251;-83
2024/04/04 02:38:58;;;;;;;3.17;1.10;;;;;;;;;;5092128;28;20230;-82
2024/04/04 02:41:24;;;;;;;4.00;1.20;;;;;;;;;;5091385;28;20259;-82
2024/04/04 02:43:51;;;;;;;3.90;1.10;;;;;;;;;;5092360;28;20198;-82
2024/04/04 02:46:20;;;;;;;4.47;0.80;;;;;;;;;;5091928;28;20734;-83
2024/04/04 02:48:47;;;;;;;2.73;0.80;;;;;;;;;;5092323;28;20239;-83
2024/04/04 02:51:14;;;;;;;2.90;1.00;;;;;;;;;;5091691;28;20797;-83
2024/04/04 02:53:42;;;;;;;5.33;1.03;;;;;;;;;;5091230;28;20225;-83
2024/04/04 02:56:08;;;;;;;5.30;1.30;;;;;;;;;;5091512;28;20255;-83
2024/04/04 02:58:36;;;;;;;5.53;1.13;;;;;;;;;;5091754;28;20268;-83
2024/04/04 03:01:03;;;;;;;4.63;1.13;;;;;;;;;;5091117;28;20194;-83
2024/04/04 03:03:31;;;;;;;4.27;1.20;;;;;;;;;;5091498;28;20194;-83
2024/04/04 03:05:57;;;;;;;2.40;0.70;;;;;;;;;;5091431;28;20282;-84
2024/04/04 03:08:25;;;;;;;4.20;0.87;;;;;;;;;;5091415;28;20591;-84
2024/04/04 03:10:52;;;;;;;3.40;0.80;;;;;;;;;;5091171;28;20198;-84
2024/04/04 03:13:19;;;;;;;4.10;1.10;;;;;;;;;;5091733;28;20197;-83
2024/04/04 03:15:54;;;;;;;4.60;0.83;;;;;;;;;;5091609;28;20674;-83
2024/04/04 03:18:21;;;;;;;3.13;0.97;;;;;;;;;;5092059;28;20198;-84
2024/04/04 03:20:47;;;;;;;4.67;1.03;;;;;;;;;;5091316;28;20252;-84
2024/04/04 03:23:14;;;;;;;3.53;1.07;;;;;;;;;;5091482;28;20285;-83
2024/04/04 03:25:42;;;;;;;4.60;1.03;;;;;;;;;;5091046;28;20792;-83
2024/04/04 03:28:10;;;;;;;5.77;1.30;;;;;;;;;;5091618;28;20222;-83
2024/04/04 03:30:36;;;;;;;5.93;1.20;;;;;;;;;;5091355;28;20201;-83
2024/04/04 03:33:04;;;;;;;8.13;1.20;;;;;;;;;;5091316;28;20263;-83
2024/04/04 03:35:30;;;;;;;7.43;1.20;;;;;;;;;;5091484;28;20251;-83
2024/04/04 03:37:57;;;;;;;6.30;1.40;;;;;;;;;;5091358;28;20248;-84
2024/04/04 03:40:25;;;;;;;6.20;1.33;;;;;;;;;;5090855;28;20718;-83
2024/04/04 03:42:54;;;;;;;5.83;1.37;;;;;;;;;;5091530;28;20194;-83
2024/04/04 03:45:21;;;;;;;8.13;1.80;;;;;;;;;;5091048;28;20217;-83
2024/04/04 03:47:48;;;;;;;6.13;1.60;;;;;;;;;;5091179;28;20202;-83
2024/04/04 03:50:15;;;;;;;8.43;1.83;;;;;;;;;;5091110;28;20206;-84
2024/04/04 03:52:41;;;;;;;8.23;1.80;;;;;;;;;;5090748;28;20621;-84
2024/04/04 03:55:09;;;;;;;9.17;2.00;;;;;;;;;;5091059;28;20209;-84
2024/04/04 03:57:35;;;;;;;11.10;1.87;;;;;;;;;;5091132;28;20244;-84
2024/04/04 04:00:06;;;;;;;10.67;2.50;;;;;;;;;;5091327;28;20257;-83
2024/04/04 04:02:32;;;;;;;12.97;2.57;;;;;;;;;;5090824;28;20584;-84
2024/04/04 04:04:59;;;;;;;8.00;2.07;;;;;;;;;;5092450;28;20264;-84
2024/04/04 04:07:25;;;;;;;10.90;2.30;;;;;;;;;;5095155;28;20194;-85
2024/04/04 04:09:53;;;;;;;10.83;2.40;;;;;;;;;;5094735;28;20202;-84
2024/04/04 04:12:19;;;;;;;11.27;2.50;;;;;;;;;;5095374;28;20199;-85
2024/04/04 04:14:46;;;;;;;11.97;2.63;;;;;;;;;;5094725;28;20276;-84
2024/04/04 04:17:14;;;;;;;14.97;3.27;;;;;;;;;;5094849;28;20205;-85
2024/04/04 04:19:41;;;;;;;15.63;3.07;;;;;;;;;;5094723;28;20317;-83
2024/04/04 04:22:07;;;;;;;16.27;3.23;;;;;;;;;;5094708;28;20202;-84
2024/04/04 04:24:34;;;;;;;18.73;3.50;;;;;;;;;;5094594;28;20675;-84
2024/04/04 04:27:01;;;;;;;16.27;3.70;;;;;;;;;;5094761;28;20252;-83
2024/04/04 04:29:28;;;;;;;18.37;3.57;;;;;;;;;;5094482;28;20209;-84
2024/04/04 04:31:56;;;;;;;17.10;3.27;;;;;;;;;;5094411;28;20256;-84
2024/04/04 04:34:25;;;;;;;13.93;3.07;;;;;;;;;;5093043;28;20205;-83
2024/04/04 04:36:54;;;;;;;18.23;3.77;;;;;;;;;;5094553;28;20194;-83
2024/04/04 04:39:22;;;;;;;10.33;3.30;;;;;;;;;;5094452;28;20268;-83
2024/04/04 04:41:48;;;;;;;19.00;3.97;;;;;;;;;;5094344;28;20251;-84
2024/04/04 04:44:15;;;;;;;15.90;3.40;;;;;;;;;;5094384;28;20198;-84
2024/04/04 04:46:41;;;;;;;19.63;3.63;;;;;;;;;;5094381;28;20248;-84
2024/04/04 04:49:09;;;;;;;18.67;3.60;;;;;;;;;;5094403;28;20202;-84
2024/04/04 04:51:37;;;;;;;19.90;3.90;;;;;;;;;;5093859;28;20208;-84
2024/04/04 04:54:04;;;;;;;26.63;3.77;;;;;;;;;;5094116;28;20301;-85
2024/04/04 04:56:31;;;;;;;16.37;3.60;;;;;;;;;;5094087;28;20214;-84
2024/04/04 04:58:58;;;;;;;18.20;3.53;;;;;;;;;;5094515;28;20229;-83
2024/04/04 05:01:24;;;;;;;22.83;4.50;;;;;;;;;;5094023;28;20194;-84
2024/04/04 05:03:51;;;;;;;23.40;4.50;;;;;;;;;;5094315;28;20234;-84
2024/04/04 05:06:18;;;;;;;23.67;4.50;;;;;;;;;;5093667;28;20260;-84
2024/04/04 05:08:46;;;;;;;19.33;4.27;;;;;;;;;;5094125;28;20210;-83
2024/04/04 05:11:12;;;;;;;26.47;4.80;;;;;;;;;;5093514;28;20190;-83
2024/04/04 05:13:40;;;;;;;27.13;4.73;;;;;;;;;;5093974;28;20195;-83
2024/04/04 05:16:06;;;;;;;27.33;5.17;;;;;;;;;;5093266;28;20547;-83
2024/04/04 05:18:33;;;;;;;36.03;6.07;;;;;;;;;;5093336;28;20259;-83
2024/04/04 05:21:00;;;;;;;30.70;6.53;;;;;;;;;;5093098;28;20714;-84
2024/04/04 05:23:27;;;;;;;29.00;5.20;;;;;;;;;;5093765;28;20228;-84
2024/04/04 05:25:55;;;;;;;27.70;5.80;;;;;;;;;;5093752;28;20230;-84
2024/04/04 05:28:26;;;;;;;33.03;5.83;;;;;;;;;;5093491;28;20293;-82
2024/04/04 05:30:52;;;;;;;22.57;5.30;;;;;;;;;;5093524;28;20201;-83
2024/04/04 05:33:20;;;;;;;32.87;5.47;;;;;;;;;;5093710;28;20290;-84
2024/04/04 05:35:46;;;;;;;28.77;5.47;;;;;;;;;;5093432;28;20267;-82
2024/04/04 05:38:13;;;;;;;39.00;6.57;;;;;;;;;;5093600;28;20198;-82
2024/04/04 05:40:40;;;;;;;37.60;6.37;;;;;;;;;;5093330;28;20230;-83
2024/04/04 05:43:08;;;;;;;30.70;6.30;;;;;;;;;;5093144;28;20202;-82
2024/04/04 05:45:34;;;;;;;29.33;5.90;;;;;;;;;;5093201;28;20194;-82
2024/04/04 05:48:02;;;;;;;33.87;6.67;;;;;;;;;;5092920;28;20224;-82
2024/04/04 05:50:28;;;;;;;33.13;7.13;;;;;;;;;;5093105;28;20202;-82
2024/04/04 05:52:56;;;;;;;31.17;6.70;;;;;;;;;;5093183;28;20244;-82
2024/04/04 05:55:22;;;;;;;41.33;7.07;;;;;;;;;;5093094;28;20195;-82
2024/04/04 05:57:49;;;;;;;37.70;6.47;;;;;;;;;;5092959;28;20201;-81
2024/04/04 06:00:17;;;;;;;43.53;6.70;;;;;;;;;;5093012;28;20321;-82
2024/04/04 06:02:44;;;;;;;38.70;6.90;;;;;;;;;;5093240;28;20213;-83
2024/04/04 06:05:10;;;;;;;33.33;5.90;;;;;;;;;;5092253;28;20195;-83
2024/04/04 06:07:38;;;;;;;33.70;6.87;;;;;;;;;;5092949;28;20199;-82
2024/04/04 06:10:05;;;;;;;32.63;6.17;;;;;;;;;;5092759;28;20226;-82
2024/04/04 06:12:32;;;;;;;36.40;7.07;;;;;;;;;;5092421;28;20233;-82
2024/04/04 06:14:58;;;;;;;38.47;6.80;;;;;;;;;;5092924;28;20255;-82
2024/04/04 06:17:27;;;;;;;34.53;6.47;;;;;;;;;;5092881;28;20277;-81
2024/04/04 06:19:53;;;;;;;40.13;6.63;;;;;;;;;;5092073;28;20720;-82
2024/04/04 06:22:20;;;;;;;44.47;7.37;;;;;;;;;;5092715;28;20255;-82
2024/04/04 06:24:46;;;;;;;39.43;6.40;;;;;;;;;;5092410;28;20226;-83
2024/04/04 06:27:14;;;;;;;37.90;6.50;;;;;;;;;;5093001;28;20198;-82
2024/04/04 06:29:41;;;;;;;36.67;7.87;;;;;;;;;;5091451;28;20248;-82
2024/04/04 06:32:08;;;;;;;35.73;6.47;;;;;;;;;;5092796;28;20202;-82
2024/04/04 06:34:36;;;;;;;33.50;6.80;;;;;;;;;;5092143;28;20198;-83
2024/04/04 06:37:03;;;;;;;38.37;6.50;;;;;;;;;;5092355;28;20229;-82
2024/04/04 06:39:30;;;;;;;35.27;6.83;;;;;;;;;;5092299;28;20672;-83
2024/04/04 06:41:57;;;;;;;39.00;6.67;;;;;;;;;;5092366;28;20293;-82
2024/04/04 06:44:23;;;;;;;39.40;7.23;;;;;;;;;;5092492;28;20718;-82
2024/04/04 06:46:51;;;;;;;35.60;6.23;;;;;;;;;;5092383;28;20195;-83
2024/04/04 06:49:18;;;;;;;45.00;7.27;;;;;;;;;;5091754;28;20404;-81
2024/04/04 06:51:46;;;;;;;34.20;6.30;;;;;;;;;;5092060;28;20777;-83
2024/04/04 06:54:13;;;;;;;34.17;5.87;;;;;;;;;;5091965;28;20299;-82
2024/04/04 06:56:39;;;;;;;35.77;5.93;;;;;;;;;;5092003;28;20691;-82
2024/04/04 06:59:06;;;;;;;29.67;6.27;;;;;;;;;;5092064;28;20202;-82
2024/04/04 07:01:32;;;;;;;31.33;6.27;;;;;;;;;;5092296;28;20267;-82
2024/04/04 07:04:01;;;;;;;33.30;6.67;;;;;;;;;;5091579;28;20198;-82
2024/04/04 07:06:27;;;;;;;40.88;6.20;;;;;;;;;;5091745;28;20681;-82
2024/04/04 07:08:56;;;;;;;35.67;6.55;;;;;;;;;;5092145;28;20206;-82
2024/04/04 07:11:22;;;;;;;31.50;6.60;;;;;;;;;;5092048;28;20252;-81
2024/04/04 07:13:49;;;;;;;28.88;6.05;;;;;;;;;;5092220;28;20199;-82
2024/04/04 07:16:16;;;;;;;26.02;5.65;;;;;;;;;;5091899;28;20259;-81
2024/04/04 07:18:43;;;;;;;25.88;5.38;;;;;;;;;;5091420;28;20216;-82
2024/04/04 07:21:09;;;;;;;23.45;5.22;;;;;;;;;;5091794;28;20225;-83
2024/04/04 07:23:36;;;;;;;24.40;5.00;;;;;;;;;;5092367;28;20199;-83
2024/04/04 07:26:04;;;;;;;28.05;5.53;;;;;;;;;;5091677;28;20222;-83
2024/04/04 07:28:31;;;;;;;26.05;5.43;;;;;;;;;;5091818;28;20216;-83
2024/04/04 07:30:57;;;;;;;21.55;5.00;;;;;;;;;;5091257;28;20191;-82
2024/04/04 07:33:25;;;;;;;27.90;5.57;;;;;;;;;;5091750;28;20207;-83
2024/04/04 07:35:51;;;;;;;31.88;5.60;;;;;;;;;;5091639;28;20191;-82
2024/04/04 07:38:18;;;;;;;28.67;5.45;;;;;;;;;;5091938;28;20190;-80
2024/04/04 07:40:46;;;;;;;24.20;5.30;;;;;;;;;;5096468;28;20647;-83
2024/04/04 07:43:15;;;;;;;28.80;5.88;;;;;;;;;;5098316;28;20220;-83
2024/04/04 07:45:41;;;;;;;26.85;5.88;;;;;;;;;;5098055;28;20686;-83
2024/04/04 07:48:09;;;;;;;31.10;5.78;;;;;;;;;;5098360;28;20202;-83
2024/04/04 07:50:36;;;;;;;24.83;5.10;;;;;;;;;;5098191;28;20221;-84
2024/04/04 07:53:03;;;;;;;37.47;7.25;;;;;;;;;;5098252;28;20202;-83
2024/04/04 07:55:30;;;;;;;28.67;6.50;;;;;;;;;;5098184;28;20300;-83
2024/04/04 07:57:57;;;;;;;28.33;5.78;;;;;;;;;;5097866;28;20285;-83
2024/04/04 08:00:25;;;;;;;24.33;5.57;;;;;;;;;;5098018;28;20294;-82
2024/04/04 08:02:52;;;;;;;29.88;5.72;;;;;;;;;;5098175;28;20202;-82
2024/04/04 08:05:20;;;;;;;32.20;5.90;;;;;;;;;;5097988;28;20196;-83
2024/04/04 08:07:46;;;;;;;28.48;5.63;;;;;;;;;;5097817;28;20198;-83
2024/04/04 08:10:15;;;;;;;33.42;5.78;;;;;;;;;;5098459;28;20202;-83
2024/04/04 08:12:43;;;;;;;28.02;5.85;;;;;;;;;;5097971;28;20190;-82
2024/04/04 08:15:12;;;;;;;29.45;6.18;;;;;;;;;;5097455;28;20205;-82
2024/04/04 08:17:40;;;;;;;28.20;5.63;;;;;;;;;;5097935;28;20199;-83
2024/04/04 08:20:09;;;;;;;25.25;5.03;;;;;;;;;;5097858;28;20250;-82
2024/04/04 08:22:35;;;;;;;24.90;5.22;;;;;;;;;;5098143;28;20218;-83
2024/04/04 08:25:03;;;;;;;25.20;5.60;;;;;;;;;;5097901;28;20248;-83
2024/04/04 08:27:29;;;;;;;23.30;5.70;;;;;;;;;;5097779;28;20230;-83
2024/04/04 08:29:56;;;;;;;22.80;4.90;;;;;;;;;;5097558;28;20213;-83
2024/04/04 08:32:22;;;;;;;22.23;4.85;;;;;;;;;;5098289;28;20198;-83
2024/04/04 08:34:51;;;;;;;24.52;5.18;;;;;;;;;;5097909;28;20202;-82
2024/04/04 08:37:17;;;;;;;27.75;5.63;;;;;;;;;;5097670;28;20194;-82
2024/04/04 08:39:45;;;;;;;28.20;5.90;;;;;;;;;;5097868;28;20225;-83
2024/04/04 08:42:11;;;;;;;24.63;4.57;;;;;;;;;;5097595;28;20198;-82
2024/04/04 08:44:40;;;;;;;21.13;4.63;;;;;;;;;;5097780;28;20222;-82
2024/04/04 08:47:08;;;;;;;25.45;5.75;;;;;;;;;;5097871;28;20256;-82
2024/04/04 08:49:38;;;;;;;25.67;5.07;;;;;;;;;;5096114;28;20209;-82
2024/04/04 08:52:07;;;;;;;25.70;4.97;;;;;;;;;;5091261;28;20198;-82
2024/04/04 08:54:36;;;;;;;28.58;5.35;;;;;;;;;;5094312;28;20232;-83
2024/04/04 08:57:03;;;;;;;27.33;5.47;;;;;;;;;;5094331;28;20225;-83
2024/04/04 08:59:30;;;;;;;24.10;5.00;;;;;;;;;;4737482;28;9999675;-83
2024/04/04 09:01:56;;;;;;;26.27;5.28;;;;;;;;;;5091373;28;20202;-83
2024/04/04 09:04:24;;;;;;;25.15;4.85;;;;;;;;;;5090958;28;20202;-83
2024/04/04 09:06:50;;;;;;;29.38;5.82;;;;;;;;;;5090596;28;20199;-82
2024/04/04 09:09:19;;;;;;;33.35;6.22;;;;;;;;;;5090525;28;20244;-82
2024/04/04 09:11:46;;;;;;;26.90;5.55;;;;;;;;;;5090604;28;20700;-83
2024/04/04 09:14:15;;;;;;;22.40;4.55;;;;;;;;;;5090521;28;20785;-83
2024/04/04 09:16:41;;;;;;;24.67;5.10;;;;;;;;;;5090342;28;20194;-83
2024/04/04 09:19:12;;;;;;;28.10;4.85;;;;;;;;;;5090666;28;20574;-83
2024/04/04 09:21:39;;;;;;;26.02;5.63;;;;;;;;;;5090164;28;20264;-83
2024/04/04 09:24:08;;;;;;;27.70;5.18;;;;;;;;;;5090862;28;20904;-83
2024/04/04 09:26:36;;;;;;;27.20;4.95;;;;;;;;;;5090135;28;20656;-83
2024/04/04 09:29:04;;;;;;;23.33;4.93;;;;;;;;;;5090338;28;20202;-82
2024/04/04 09:31:32;;;;;;;20.92;4.95;;;;;;;;;;5090034;28;20202;-83
2024/04/04 09:34:00;;;;;;;24.30;5.22;;;;;;;;;;5089804;28;20202;-81
2024/04/04 09:36:29;;;;;;;22.63;5.68;;;;;;;;;;5090534;28;20234;-82
2024/04/04 09:38:57;;;;;;;26.77;5.78;;;;;;;;;;5090333;28;20209;-81
2024/04/04 09:41:24;;;;;;;22.08;5.25;;;;;;;;;;5089739;28;20261;-82
2024/04/04 09:43:56;;;;;;;23.30;4.38;;;;;;;;;;5090028;28;20979;-82
2024/04/04 09:46:23;;;;;;;23.70;5.18;;;;;;;;;;5089651;28;20205;-82
2024/04/04 09:48:50;;;;;;;27.52;5.40;;;;;;;;;;5090141;28;20205;-81
2024/04/04 09:51:19;;;;;;;19.48;4.80;;;;;;;;;;5090002;28;20237;-82
2024/04/04 09:53:47;;;;;;;19.30;4.20;;;;;;;;;;5090393;28;20203;-82
2024/04/04 09:56:14;;;;;;;20.40;4.10;;;;;;;;;;5088915;28;20606;-83
2024/04/04 09:58:43;;;;;;;21.60;4.43;;;;;;;;;;5093831;28;20206;-83
2024/04/04 10:01:20;;;;;;;19.80;4.18;;;;;;;;;;5093719;28;20258;-83
2024/04/04 10:03:51;;;;;;;16.23;4.20;;;;;;;;;;5096483;28;20197;-82
2024/04/04 10:06:33;;;;;;;22.08;4.32;;;;;;;;;;5076319;28;20191;-83
2024/04/04 10:09:00;;;;;;;21.60;4.13;;;;;;;;;;5093044;28;20194;-83
2024/04/04 10:11:27;;;;;;;24.48;4.78;;;;;;;;;;5092556;28;20198;-82
2024/04/04 10:13:54;;;;;;;23.88;4.57;;;;;;;;;;5092292;28;20253;-82
2024/04/04 10:16:29;;;;;;;15.90;4.50;;;;;;;;;;5093014;28;20226;-83
2024/04/04 10:18:56;;;;;;;24.30;4.25;;;;;;;;;;5092836;28;20197;-82
2024/04/04 10:21:24;;;;;;;22.85;4.25;;;;;;;;;;5092715;28;20258;-82
2024/04/04 10:23:53;;;;;;;22.75;4.47;;;;;;;;;;5093215;28;20233;-82
2024/04/04 10:26:19;;;;;;;21.65;5.07;;;;;;;;;;5092191;28;20818;-82
2024/04/04 10:28:47;;;;;;;21.02;4.00;;;;;;;;;;5092684;28;20296;-82
2024/04/04 10:31:13;;;;;;;18.60;3.63;;;;;;;;;;5092285;28;20717;-83
2024/04/04 10:33:42;;;;;;;21.27;4.28;;;;;;;;;;5092439;28;20224;-83
2024/04/04 10:36:08;;;;;;;18.00;4.00;;;;;;;;;;5092191;28;20229;-84
2024/04/04 10:38:35;;;;;;;15.75;4.22;;;;;;;;;;5092385;28;20706;-82
2024/04/04 10:41:02;;;;;;;15.25;3.72;;;;;;;;;;5092388;28;20283;-82
2024/04/04 10:43:29;;;;;;;16.83;4.25;;;;;;;;;;5092197;28;20255;-83
2024/04/04 10:45:55;;;;;;;17.88;4.45;;;;;;;;;;5092198;28;20195;-82
2024/04/04 10:48:23;;;;;;;16.38;3.97;;;;;;;;;;5092335;28;20252;-83
2024/04/04 10:50:50;;;;;;;16.80;4.68;;;;;;;;;;5094262;28;20206;-84
2024/04/04 10:53:18;;;;;;;20.63;4.85;;;;;;;;;;5092109;28;20283;-82
2024/04/04 10:55:44;;;;;;;17.45;3.97;;;;;;;;;;5092353;28;20236;-83
2024/04/04 10:58:12;;;;;;;18.10;4.32;;;;;;;;;;5092233;28;20199;-83
2024/04/04 11:00:39;;;;;;;23.98;5.18;;;;;;;;;;5092384;28;20279;-83
2024/04/04 11:03:09;;;;;;;20.52;4.72;;;;;;;;;;5092052;28;20202;-82
2024/04/04 11:05:35;;;;;;;21.92;4.90;;;;;;;;;;5092071;28;20691;-84
2024/04/04 11:08:06;;;;;;;15.25;3.60;;;;;;;;;;5094337;28;20236;-83
2024/04/04 11:10:33;;;;;;;17.70;4.18;;;;;;;;;;5091727;28;20205;-83
2024/04/04 11:13:00;;;;;;;22.98;4.47;;;;;;;;;;5091879;28;20244;-83
2024/04/04 11:15:26;;;;;;;19.77;4.50;;;;;;;;;;5091241;28;20223;-83
2024/04/04 11:17:53;;;;;;;19.88;4.40;;;;;;;;;;5092079;28;20243;-83
2024/04/04 11:20:19;;;;;;;24.98;4.88;;;;;;;;;;5091774;28;20714;-83
2024/04/04 11:22:47;;;;;;;20.00;4.95;;;;;;;;;;5091524;28;20206;-83
2024/04/04 11:25:14;;;;;;;18.02;4.32;;;;;;;;;;5091128;28;20763;-83
2024/04/04 11:27:41;;;;;;;22.55;4.45;;;;;;;;;;5091779;28;20289;-84
2024/04/04 11:30:10;;;;;;;22.58;5.13;;;;;;;;;;5091598;28;20226;-84
2024/04/04 11:32:37;;;;;;;26.58;4.68;;;;;;;;;;5091729;28;20557;-83
2024/04/04 11:35:04;;;;;;;23.60;5.20;;;;;;;;;;5091516;28;20720;-83
2024/04/04 11:37:32;;;;;;;23.92;4.50;;;;;;;;;;5091115;28;20194;-83
2024/04/04 11:39:58;;;;;;;22.98;4.40;;;;;;;;;;5091322;28;20199;-83
2024/04/04 11:42:27;;;;;;;21.50;4.57;;;;;;;;;;5091824;28;20222;-83
2024/04/04 11:44:53;;;;;;;23.17;4.95;;;;;;;;;;5091836;28;20233;-84
2024/04/04 11:47:20;;;;;;;24.92;4.78;;;;;;;;;;5091326;28;20282;-84
2024/04/04 11:49:47;;;;;;;20.83;4.68;;;;;;;;;;5091881;28;20218;-83
2024/04/04 11:52:14;;;;;;;17.67;4.80;;;;;;;;;;5091034;28;20289;-83
2024/04/04 11:54:40;;;;;;;22.77;4.80;;;;;;;;;;5091438;28;20287;-83
2024/04/04 11:57:08;;;;;;;23.48;4.88;;;;;;;;;;5091577;28;20202;-83
2024/04/04 11:59:35;;;;;;;20.77;4.30;;;;;;;;;;5091707;28;20671;-82
2024/04/04 12:02:03;;;;;;;28.30;5.28;;;;;;;;;;5091325;28;20230;-83
2024/04/04 12:04:39;;;;;;;21.98;4.72;;;;;;;;;;5091319;28;20195;-83
2024/04/04 12:07:06;;;;;;;20.88;4.80;;;;;;;;;;5090926;28;20280;-84
2024/04/04 12:09:32;;;;;;;20.83;4.20;;;;;;;;;;5091245;28;20252;-83
2024/04/04 12:12:00;;;;;;;19.15;4.15;;;;;;;;;;5091466;28;20206;-83
2024/04/04 12:14:26;;;;;;;22.20;4.88;;;;;;;;;;5091679;28;20205;-83
2024/04/04 12:16:55;;;;;;;18.52;4.45;;;;;;;;;;5091136;28;20202;-82
2024/04/04 12:19:27;;;;;;;19.27;4.28;;;;;;;;;;5091025;28;20248;-83
2024/04/04 12:21:55;;;;;;;22.10;4.65;;;;;;;;;;5090608;28;20316;-83
2024/04/04 12:24:22;;;;;;;23.95;4.55;;;;;;;;;;5091118;28;20247;-82
2024/04/04 12:26:50;;;;;;;23.52;4.60;;;;;;;;;;5092429;28;20218;-83
2024/04/04 12:29:19;;;;;;;25.13;4.57;;;;;;;;;;5095042;28;20198;-83
2024/04/04 12:31:45;;;;;;;20.92;4.57;;;;;;;;;;5094980;28;20201;-83
2024/04/04 12:34:14;;;;;;;17.48;4.45;;;;;;;;;;5094733;28;20701;-83
2024/04/04 12:36:40;;;;;;;19.13;4.60;;;;;;;;;;5094588;28;20195;-83
2024/04/04 12:39:09;;;;;;;19.80;4.32;;;;;;;;;;5094898;28;20202;-83
2024/04/04 12:41:35;;;;;;;21.10;4.43;;;;;;;;;;5094664;28;20271;-84
2024/04/04 12:44:02;;;;;;;22.83;4.72;;;;;;;;;;5094861;28;20209;-84
2024/04/04 12:46:29;;;;;;;19.55;4.70;;;;;;;;;;5094749;28;20622;-83
2024/04/04 12:48:59;;;;;;;20.85;4.32;;;;;;;;;;5094787;28;20198;-83
2024/04/04 12:51:26;;;;;;;17.05;4.40;;;;;;;;;;5094354;28;20290;-84
2024/04/04 12:53:54;;;;;;;19.60;4.57;;;;;;;;;;5094448;28;20230;-83
2024/04/04 12:56:20;;;;;;;18.08;4.47;;;;;;;;;;5094754;28;20234;-83
2024/04/04 12:58:47;;;;;;;16.40;3.95;;;;;;;;;;5094342;28;20205;-83
2024/04/04 13:01:14;;;;;;;20.38;4.15;;;;;;;;;;5094330;28;20272;-84
2024/04/04 13:03:42;;;;;;;23.50;5.07;;;;;;;;;;5094181;28;20289;-83
2024/04/04 13:06:09;;;;;;;21.00;4.45;;;;;;;;;;5094014;28;20268;-83
2024/04/04 13:08:38;;;;;;;25.40;4.45;;;;;;;;;;5094176;28;20233;-83
2024/04/04 13:11:04;;;;;;;16.65;4.00;;;;;;;;;;5094175;28;20242;-84
2024/04/04 13:13:32;;;;;;;20.23;4.50;;;;;;;;;;5094556;28;20289;-83
2024/04/04 13:15:58;;;;;;;21.00;4.28;;;;;;;;;;5094256;28;20259;-83
2024/04/04 13:18:25;;;;;;;23.48;4.50;;;;;;;;;;5094306;28;20199;-83
2024/04/04 13:20:52;;;;;;;23.55;4.15;;;;;;;;;;5092568;28;20222;-84
2024/04/04 13:23:19;;;;;;;18.48;4.25;;;;;;;;;;5093743;28;20670;-84
2024/04/04 13:25:47;;;;;;;15.43;3.72;;;;;;;;;;5093811;28;20252;-84
2024/04/04 13:28:16;;;;;;;23.10;4.57;;;;;;;;;;5092675;28;20749;-83
2024/04/04 13:30:42;;;;;;;25.45;5.35;;;;;;;;;;5093880;28;20543;-84
2024/04/04 13:33:10;;;;;;;25.00;5.05;;;;;;;;;;5093597;28;20550;-84
2024/04/04 13:35:36;;;;;;;23.30;5.28;;;;;;;;;;5093791;28;20240;-83
2024/04/04 13:38:03;;;;;;;24.60;5.45;;;;;;;;;;5093320;28;20202;-83
2024/04/04 13:40:29;;;;;;;23.92;5.45;;;;;;;;;;5093596;28;20255;-83
2024/04/04 13:42:58;;;;;;;21.75;4.78;;;;;;;;;;5093718;28;20234;-83
2024/04/04 13:45:24;;;;;;;22.08;5.03;;;;;;;;;;5093706;28;20278;-83
2024/04/04 13:47:52;;;;;;;26.00;5.20;;;;;;;;;;5093287;28;20725;-83
2024/04/04 13:50:20;;;;;;;23.20;4.90;;;;;;;;;;5093415;28;20248;-83
2024/04/04 13:52:47;;;;;;;21.50;4.38;;;;;;;;;;5093243;28;20292;-83
2024/04/04 13:55:14;;;;;;;18.90;3.92;;;;;;;;;;5093619;28;20663;-83
2024/04/04 13:57:41;;;;;;;23.02;4.38;;;;;;;;;;5093305;28;20247;-82
2024/04/04 14:00:09;;;;;;;17.67;4.20;;;;;;;;;;5093359;28;20232;-83
2024/04/04 14:02:37;;;;;;;14.80;3.78;;;;;;;;;;5092702;28;20229;-82
2024/04/04 14:05:04;;;;;;;22.30;4.60;;;;;;;;;;5093004;28;20557;-83
2024/04/04 14:07:31;;;;;;;14.23;3.80;;;;;;;;;;5093019;28;20206;-83
2024/04/04 14:09:57;;;;;;;19.83;4.00;;;;;;;;;;5093016;28;20256;-83
2024/04/04 14:12:24;;;;;;;13.35;3.33;;;;;;;;;;5092992;28;20198;-83
2024/04/04 14:14:51;;;;;;;13.38;2.92;;;;;;;;;;5092925;28;20289;-82
2024/04/04 14:17:20;;;;;;;16.55;3.40;;;;;;;;;;5092169;28;20948;-84
2024/04/04 14:19:46;;;;;;;17.48;3.40;;;;;;;;;;5092051;28;20199;-82
2024/04/04 14:22:13;;;;;;;18.25;3.42;;;;;;;;;;5092699;28;20710;-83
2024/04/04 14:24:40;;;;;;;20.23;3.47;;;;;;;;;;5092761;28;20194;-83
2024/04/04 14:27:07;;;;;;;15.82;3.13;;;;;;;;;;5092703;28;20288;-83
2024/04/04 14:29:34;;;;;;;14.00;3.50;;;;;;;;;;5092852;28;20240;-83
2024/04/04 14:32:01;;;;;;;16.02;3.53;;;;;;;;;;5092247;28;20256;-84
2024/04/04 14:34:29;;;;;;;19.30;3.42;;;;;;;;;;5092515;28;20670;-83